createdAt,value
2023-02-08T00:00:42.229Z,100783.00
2023-02-08T00:03:12.276Z,100785.00
2023-02-08T00:05:42.502Z,100794.00
2023-02-08T00:08:12.428Z,100791.00
2023-02-08T00:10:42.725Z,100795.00
2023-02-08T00:13:15.450Z,100803.00
2023-02-08T00:15:46.201Z,100804.00
2023-02-08T00:18:16.542Z,100813.00
2023-02-08T00:20:47.207Z,100800.00
2023-02-08T00:23:17.631Z,100795.00
2023-02-08T00:25:47.554Z,100803.00
2023-02-08T00:28:22.788Z,100804.00
2023-02-08T00:30:53.519Z,100820.00
2023-02-08T00:33:23.513Z,100816.00
2023-02-08T00:35:53.488Z,100810.00
2023-02-08T00:38:23.423Z,100820.00
2023-02-08T00:40:53.387Z,100832.00
2023-02-08T00:43:25.945Z,100833.00
2023-02-08T00:45:57.961Z,100835.00
2023-02-08T00:48:28.090Z,100835.00
2023-02-08T00:51:02.636Z,100828.00
2023-02-08T00:53:32.750Z,100819.00
2023-02-08T00:56:02.748Z,100816.00
2023-02-08T00:58:35.534Z,100807.00
2023-02-08T01:01:06.476Z,100817.00
2023-02-08T01:03:37.346Z,100822.00
2023-02-08T01:06:08.760Z,100817.00
2023-02-08T01:08:39.169Z,100822.00
2023-02-08T01:11:10.686Z,100808.00
2023-02-08T01:13:43.710Z,100825.00
2023-02-08T01:16:15.915Z,100817.00
2023-02-08T01:18:47.427Z,100824.00
2023-02-08T01:21:19.127Z,100830.00
2023-02-08T01:23:49.606Z,100826.00
2023-02-08T01:26:20.813Z,100831.00
2023-02-08T01:28:54.271Z,100818.00
2023-02-08T01:31:25.751Z,100826.00
2023-02-08T01:33:55.732Z,100830.00
2023-02-08T01:36:25.710Z,100848.00
2023-02-08T01:38:55.883Z,100837.00
2023-02-08T01:41:29.706Z,100844.00
2023-02-08T01:44:11.667Z,100819.00
2023-02-08T01:46:43.322Z,100822.00
2023-02-08T01:49:17.947Z,100827.00
2023-02-08T01:51:51.223Z,100835.00
2023-02-08T01:54:23.014Z,100832.00
2023-02-08T01:56:55.361Z,100835.00
2023-02-08T01:59:30.347Z,100828.00
2023-02-08T02:02:01.313Z,100834.00
2023-02-08T02:04:31.765Z,100827.00
2023-02-08T02:07:04.396Z,100819.00
2023-02-08T02:09:36.550Z,100831.00
2023-02-08T02:12:07.073Z,100830.00
2023-02-08T02:14:40.517Z,100819.00
2023-02-08T02:17:10.713Z,100823.00
2023-02-08T02:19:46.323Z,100814.00
2023-02-08T02:22:37.974Z,100814.00
2023-02-08T02:25:28.308Z,100815.00
2023-02-08T02:28:25.569Z,100820.00
2023-02-08T02:31:29.616Z,100814.00
2023-02-08T02:34:05.665Z,100814.00
2023-02-08T02:36:39.727Z,100820.00
2023-02-08T02:39:18.963Z,100814.00
2023-02-08T02:42:09.445Z,100803.00
2023-02-08T02:44:42.149Z,100798.00
2023-02-08T02:47:20.048Z,100786.00
2023-02-08T02:49:53.043Z,100794.00
2023-02-08T02:52:33.559Z,100775.00
2023-02-08T02:55:07.914Z,100780.00
2023-02-08T02:57:38.297Z,100777.00
2023-02-08T03:00:11.217Z,100779.00
2023-02-08T03:02:45.215Z,100784.00
2023-02-08T03:05:15.619Z,100784.00
2023-02-08T03:08:18.078Z,100790.00
2023-02-08T03:11:07.489Z,100789.00
2023-02-08T03:13:40.213Z,100804.00
2023-02-08T03:16:19.780Z,100807.00
2023-02-08T03:19:02.736Z,100814.00
2023-02-08T03:21:41.099Z,100817.00
2023-02-08T03:24:17.924Z,100810.00
2023-02-08T03:26:53.540Z,100823.00
2023-02-08T03:29:32.048Z,100809.00
2023-02-08T03:32:03.947Z,100818.00
2023-02-08T03:34:41.051Z,100815.00
2023-02-08T03:37:14.298Z,100832.00
2023-02-08T03:39:45.676Z,100820.00
2023-02-08T03:42:18.106Z,100815.00
2023-02-08T03:44:51.287Z,100826.00
2023-02-08T03:47:24.074Z,100822.00
2023-02-08T03:49:58.470Z,100830.00
2023-02-08T03:52:29.394Z,100836.00
2023-02-08T03:55:01.862Z,100829.00
2023-02-08T03:57:34.818Z,100825.00
2023-02-08T04:00:09.481Z,100829.00
2023-02-08T04:02:44.957Z,100834.00
2023-02-08T04:05:17.832Z,100823.00
2023-02-08T04:07:47.980Z,100820.00
2023-02-08T04:10:18.115Z,100820.00
2023-02-08T04:12:49.555Z,100814.00
2023-02-08T04:15:19.980Z,100824.00
2023-02-08T04:17:49.932Z,100816.00
2023-02-08T04:20:22.866Z,100824.00
2023-02-08T04:22:52.823Z,100818.00
2023-02-08T04:25:22.868Z,100823.00
2023-02-08T04:27:53.177Z,100826.00
2023-02-08T04:30:23.290Z,100807.00
2023-02-08T04:32:53.221Z,100809.00
2023-02-08T04:35:25.816Z,100802.00
2023-02-08T04:37:55.806Z,100802.00
2023-02-08T04:40:25.723Z,100811.00
2023-02-08T04:42:55.700Z,100803.00
2023-02-08T04:45:27.160Z,100818.00
2023-02-08T04:47:58.401Z,100814.00
2023-02-08T04:50:31.758Z,100812.00
2023-02-08T04:53:01.729Z,100817.00
2023-02-08T04:55:31.701Z,100816.00
2023-02-08T04:58:01.886Z,100821.00
2023-02-08T05:00:32.162Z,100799.00
2023-02-08T05:03:02.259Z,100805.00
2023-02-08T05:05:34.910Z,100807.00
2023-02-08T05:08:05.065Z,100811.00
2023-02-08T05:10:34.989Z,100804.00
2023-02-08T05:13:05.013Z,100810.00
2023-02-08T05:15:35.028Z,100805.00
2023-02-08T05:18:04.945Z,100817.00
2023-02-08T05:20:37.474Z,100809.00
2023-02-08T05:23:07.462Z,100813.00
2023-02-08T05:25:37.353Z,100803.00
2023-02-08T05:28:07.487Z,100817.00
2023-02-08T05:30:37.574Z,100809.00
2023-02-08T05:33:07.647Z,100816.00
2023-02-08T05:35:40.171Z,100811.00
2023-02-08T05:38:10.155Z,100813.00
2023-02-08T05:40:40.647Z,100827.00
2023-02-08T05:43:10.781Z,100810.00
2023-02-08T05:45:40.731Z,100825.00
2023-02-08T05:48:10.738Z,100809.00
2023-02-08T05:50:43.306Z,100819.00
2023-02-08T05:53:14.244Z,100831.00
2023-02-08T05:55:48.666Z,100832.00
2023-02-08T05:58:18.981Z,100833.00
2023-02-08T06:00:49.007Z,100836.00
2023-02-08T06:03:18.941Z,100849.00
2023-02-08T06:05:51.583Z,100855.00
2023-02-08T06:08:21.528Z,100857.00
2023-02-08T06:10:52.094Z,100857.00
2023-02-08T06:13:22.079Z,100855.00
2023-02-08T06:15:52.036Z,100852.00
2023-02-08T06:18:22.000Z,100875.00
2023-02-08T06:20:55.519Z,100878.00
2023-02-08T06:23:26.146Z,100871.00
2023-02-08T06:25:56.075Z,100882.00
2023-02-08T06:28:26.009Z,100873.00
2023-02-08T06:30:56.120Z,100893.00
2023-02-08T06:33:26.089Z,100895.00
2023-02-08T06:35:58.616Z,100880.00
2023-02-08T06:38:28.841Z,100901.00
2023-02-08T06:40:59.076Z,100885.00
2023-02-08T06:43:29.035Z,100889.00
2023-02-08T06:45:59.023Z,100893.00
2023-02-08T06:48:29.009Z,100896.00
2023-02-08T06:51:01.615Z,100894.00
2023-02-08T06:53:31.759Z,100895.00
2023-02-08T06:56:01.760Z,100896.00
2023-02-08T06:58:31.680Z,100907.00
2023-02-08T07:01:01.620Z,100902.00
2023-02-08T07:03:31.626Z,100904.00
2023-02-08T07:06:05.610Z,100903.00
2023-02-08T07:08:36.400Z,100903.00
2023-02-08T07:11:10.200Z,100902.00
2023-02-08T07:13:40.593Z,100886.00
2023-02-08T07:16:11.564Z,100897.00
2023-02-08T07:18:41.546Z,100903.00
2023-02-08T07:21:14.200Z,100899.00
2023-02-08T07:23:44.290Z,100903.00
2023-02-08T07:26:15.288Z,100893.00
2023-02-08T07:28:45.289Z,100906.00
2023-02-08T07:31:16.927Z,100907.00
2023-02-08T07:33:47.578Z,100901.00
2023-02-08T07:36:20.086Z,100906.00
2023-02-08T07:38:50.000Z,100904.00
2023-02-08T07:41:19.995Z,100908.00
2023-02-08T07:43:49.953Z,100912.00
2023-02-08T07:46:22.822Z,100905.00
2023-02-08T07:48:52.895Z,100917.00
2023-02-08T07:51:25.512Z,100906.00
2023-02-08T07:53:55.492Z,100900.00
2023-02-08T07:56:25.487Z,100919.00
2023-02-08T07:58:55.452Z,100921.00
2023-02-08T08:01:25.424Z,100928.00
2023-02-08T08:03:55.921Z,100922.00
2023-02-08T08:06:28.800Z,100929.00
2023-02-08T08:09:01.481Z,100909.00
2023-02-08T08:11:31.453Z,100919.00
2023-02-08T08:14:01.435Z,100917.00
2023-02-08T08:16:31.438Z,100919.00
2023-02-08T08:19:01.442Z,100922.00
2023-02-08T08:21:33.948Z,100920.00
2023-02-08T08:24:03.861Z,100920.00
2023-02-08T08:26:33.830Z,100930.00
2023-02-08T08:29:03.847Z,100935.00
2023-02-08T08:31:33.846Z,100922.00
2023-02-08T08:34:03.872Z,100937.00
2023-02-08T08:36:36.377Z,100934.00
2023-02-08T08:39:06.329Z,100921.00
2023-02-08T08:41:37.081Z,100925.00
2023-02-08T08:44:07.304Z,100931.00
2023-02-08T08:46:37.303Z,100935.00
2023-02-08T08:49:07.250Z,100929.00
2023-02-08T08:51:39.763Z,100938.00
2023-02-08T08:54:10.087Z,100943.00
2023-02-08T08:56:40.122Z,100941.00
2023-02-08T08:59:10.044Z,100932.00
2023-02-08T09:01:42.375Z,100937.00
2023-02-08T09:04:12.485Z,100946.00
2023-02-08T09:06:45.097Z,100940.00
2023-02-08T09:09:15.114Z,100931.00
2023-02-08T09:11:45.158Z,100937.00
2023-02-08T09:14:15.183Z,100946.00
2023-02-08T09:16:48.055Z,100931.00
2023-02-08T09:19:18.694Z,100939.00
2023-02-08T09:21:51.425Z,100948.00
2023-02-08T09:24:21.372Z,100937.00
2023-02-08T09:26:51.317Z,100937.00
2023-02-08T09:29:21.331Z,100945.00
2023-02-08T09:31:51.454Z,100946.00
2023-02-08T09:34:21.555Z,100944.00
2023-02-08T09:36:54.276Z,100945.00
2023-02-08T09:39:26.182Z,100940.00
2023-02-08T09:42:25.990Z,100947.00
2023-02-08T09:45:08.157Z,100960.00
2023-02-08T09:47:39.977Z,100947.00
2023-02-08T09:50:16.236Z,100947.00
2023-02-08T09:52:52.653Z,100944.00
2023-02-08T09:55:31.032Z,100951.00
2023-02-08T09:58:01.697Z,100960.00
2023-02-08T10:00:37.684Z,100946.00
2023-02-08T10:03:08.849Z,100949.00
2023-02-08T10:05:38.878Z,100955.00
2023-02-08T10:08:11.875Z,100940.00
2023-02-08T10:10:48.707Z,100945.00
2023-02-08T10:13:41.146Z,100946.00
2023-02-08T10:16:18.753Z,100940.00
2023-02-08T10:18:53.450Z,100934.00
2023-02-08T10:21:33.253Z,100933.00
2023-02-08T10:24:17.131Z,100940.00
2023-02-08T10:26:49.101Z,100938.00
2023-02-08T10:29:49.771Z,100921.00
2023-02-08T10:32:30.405Z,100940.00
2023-02-08T10:35:04.744Z,100918.00
2023-02-08T10:37:36.636Z,100937.00
2023-02-08T10:40:21.056Z,100943.00
2023-02-08T10:42:52.689Z,100935.00
2023-02-08T10:45:27.311Z,100940.00
2023-02-08T10:47:58.740Z,100957.00
2023-02-08T10:50:33.212Z,100948.00
2023-02-08T10:53:03.186Z,100946.00
2023-02-08T10:55:38.599Z,100936.00
2023-02-08T10:58:09.381Z,100940.00
2023-02-08T11:00:41.167Z,100940.00
2023-02-08T11:03:18.821Z,100941.00
2023-02-08T11:05:49.134Z,100943.00
2023-02-08T11:08:20.772Z,100939.00
2023-02-08T11:11:02.005Z,100934.00
2023-02-08T11:13:36.784Z,100922.00
2023-02-08T11:16:08.731Z,100919.00
2023-02-08T11:18:41.458Z,100922.00
2023-02-08T11:21:13.811Z,100936.00
2023-02-08T11:23:48.660Z,100921.00
2023-02-08T11:26:24.231Z,100934.00
2023-02-08T11:29:03.698Z,100922.00
2023-02-08T11:31:36.208Z,100914.00
2023-02-08T11:34:07.372Z,100916.00
2023-02-08T11:36:38.361Z,100899.00
2023-02-08T11:39:19.622Z,100901.00
2023-02-08T11:41:53.958Z,100890.00
2023-02-08T11:44:26.750Z,100893.00
2023-02-08T11:46:57.108Z,100883.00
2023-02-08T11:49:28.925Z,100890.00
2023-02-08T11:51:59.453Z,100897.00
2023-02-08T11:54:38.035Z,100880.00
2023-02-08T11:57:16.025Z,100876.00
2023-02-08T11:59:46.374Z,100876.00
2023-02-08T12:02:40.180Z,100874.00
2023-02-08T12:05:15.751Z,100879.00
2023-02-08T12:08:06.331Z,100884.00
2023-02-08T12:10:57.102Z,100875.00
2023-02-08T12:13:41.836Z,100869.00
2023-02-08T12:16:21.038Z,100863.00
2023-02-08T12:19:05.969Z,100868.00
2023-02-08T12:21:40.581Z,100857.00
2023-02-08T12:24:17.997Z,100861.00
2023-02-08T12:26:59.296Z,100854.00
2023-02-08T12:29:47.256Z,100862.00
2023-02-08T12:32:40.533Z,100846.00
2023-02-08T12:35:40.172Z,100857.00
2023-02-08T12:38:31.720Z,100855.00
2023-02-08T12:41:05.924Z,100845.00
2023-02-08T12:43:54.542Z,100846.00
2023-02-08T12:46:35.283Z,100834.00
2023-02-08T12:49:21.001Z,100833.00
2023-02-08T12:51:57.156Z,100846.00
2023-02-08T12:54:33.793Z,100851.00
2023-02-08T12:57:05.691Z,100831.00
2023-02-08T12:59:39.208Z,100845.00
2023-02-08T13:02:16.799Z,100829.00
2023-02-08T13:04:49.722Z,100827.00
2023-02-08T13:07:23.324Z,100822.00
2023-02-08T13:10:02.611Z,100816.00
2023-02-08T13:12:35.012Z,100821.00
2023-02-08T13:15:15.874Z,100817.00
2023-02-08T13:17:56.423Z,100826.00
2023-02-08T13:20:36.751Z,100821.00
2023-02-08T13:23:09.663Z,100813.00
2023-02-08T13:25:39.990Z,100818.00
2023-02-08T13:28:11.837Z,100813.00
2023-02-08T13:30:43.092Z,100813.00
2023-02-08T13:33:20.132Z,100818.00
2023-02-08T13:35:53.520Z,100819.00
2023-02-08T13:38:29.988Z,100819.00
2023-02-08T13:41:11.702Z,100816.00
2023-02-08T13:43:44.685Z,100813.00
2023-02-08T13:46:15.263Z,100810.00
2023-02-08T13:48:50.796Z,100808.00
2023-02-08T13:51:59.473Z,100813.00
2023-02-08T13:54:29.541Z,100805.00
2023-02-08T13:56:59.835Z,100805.00
2023-02-08T13:59:34.125Z,100810.00
2023-02-08T14:02:28.896Z,100796.00
2023-02-08T14:05:28.641Z,100809.00
2023-02-08T14:08:02.272Z,100800.00
2023-02-08T14:10:37.616Z,100800.00
2023-02-08T14:13:17.349Z,100800.00
2023-02-08T14:15:47.935Z,100803.00
2023-02-08T14:18:26.256Z,100812.00
2023-02-08T14:21:04.396Z,100810.00
2023-02-08T14:23:40.834Z,100811.00
2023-02-08T14:26:13.173Z,100811.00
2023-02-08T14:28:48.884Z,100814.00
2023-02-08T14:31:24.169Z,100815.00
2023-02-08T14:33:56.902Z,100814.00
2023-02-08T14:36:31.099Z,100829.00
2023-02-08T14:39:29.204Z,100817.00
2023-02-08T14:42:05.475Z,100823.00
2023-02-08T14:45:06.236Z,100816.00
2023-02-08T14:48:08.049Z,100817.00
2023-02-08T14:50:44.924Z,100816.00
2023-02-08T14:53:28.390Z,100807.00
2023-02-08T14:56:06.528Z,100801.00
2023-02-08T14:58:39.570Z,100805.00
2023-02-08T15:01:11.465Z,100796.00
2023-02-08T15:03:43.263Z,100808.00
2023-02-08T15:06:49.810Z,100809.00
2023-02-08T15:09:22.763Z,100796.00
2023-02-08T15:12:02.286Z,100797.00
2023-02-08T15:14:33.449Z,100794.00
2023-02-08T15:17:03.487Z,100797.00
2023-02-08T15:19:35.348Z,100782.00
2023-02-08T15:22:21.416Z,100787.00
2023-02-08T15:24:55.103Z,100786.00
2023-02-08T15:27:29.210Z,100783.00
2023-02-08T15:29:59.228Z,100797.00
2023-02-08T15:32:30.228Z,100791.00
2023-02-08T15:35:02.212Z,100797.00
2023-02-08T15:37:34.803Z,100788.00
2023-02-08T15:40:05.734Z,100791.00
2023-02-08T15:42:38.285Z,100800.00
2023-02-08T15:45:24.654Z,100803.00
2023-02-08T15:47:55.459Z,100784.00
2023-02-08T15:50:26.477Z,100791.00
2023-02-08T15:53:02.481Z,100792.00
2023-02-08T15:55:35.704Z,100794.00
2023-02-08T15:58:10.200Z,100788.00
2023-02-08T16:00:40.939Z,100793.00
2023-02-08T16:03:20.442Z,100790.00
2023-02-08T16:05:54.215Z,100772.00
2023-02-08T16:08:28.037Z,100784.00
2023-02-08T16:11:00.878Z,100779.00
2023-02-08T16:13:35.014Z,100778.00
2023-02-08T16:16:19.680Z,100783.00
2023-02-08T16:18:50.423Z,100782.00
2023-02-08T16:21:31.000Z,100767.00
2023-02-08T16:24:02.836Z,100784.00
2023-02-08T16:26:35.594Z,100793.00
2023-02-08T16:29:09.473Z,100785.00
2023-02-08T16:31:39.677Z,100788.00
2023-02-08T16:34:11.277Z,100796.00
2023-02-08T16:36:44.291Z,100789.00
2023-02-08T16:39:28.402Z,100784.00
2023-02-08T16:42:14.666Z,100786.00
2023-02-08T16:45:15.541Z,100787.00
2023-02-08T16:47:47.164Z,100783.00
2023-02-08T16:50:19.125Z,100796.00
2023-02-08T16:52:51.713Z,100782.00
2023-02-08T16:55:23.482Z,100783.00
2023-02-08T16:57:54.857Z,100792.00
2023-02-08T17:00:29.691Z,100788.00
2023-02-08T17:03:00.216Z,100792.00
2023-02-08T17:05:32.808Z,100790.00
2023-02-08T17:08:02.951Z,100785.00
2023-02-08T17:10:35.367Z,100796.00
2023-02-08T17:13:19.775Z,100793.00
2023-02-08T17:15:53.855Z,100791.00
2023-02-08T17:18:24.372Z,100794.00
2023-02-08T17:20:57.946Z,100798.00
2023-02-08T17:23:27.992Z,100772.00
2023-02-08T17:25:57.998Z,100784.00
2023-02-08T17:28:28.066Z,100784.00
2023-02-08T17:31:01.027Z,100788.00
2023-02-08T17:33:33.297Z,100784.00
2023-02-08T17:36:03.209Z,100784.00
2023-02-08T17:38:33.316Z,100779.00
2023-02-08T17:41:06.129Z,100775.00
2023-02-08T17:43:37.302Z,100769.00
2023-02-08T17:46:14.315Z,100774.00
2023-02-08T17:48:45.018Z,100763.00
2023-02-08T17:51:17.821Z,100773.00
2023-02-08T17:53:47.890Z,100763.00
2023-02-08T17:56:21.100Z,100779.00
2023-02-08T17:58:53.676Z,100774.00
2023-02-08T18:01:28.511Z,100768.00
2023-02-08T18:03:58.728Z,100772.00
2023-02-08T18:06:28.984Z,100771.00
2023-02-08T18:08:58.973Z,100771.00
2023-02-08T18:11:29.210Z,100773.00
2023-02-08T18:13:59.209Z,100776.00
2023-02-08T18:16:32.380Z,100768.00
2023-02-08T18:19:02.488Z,100770.00
2023-02-08T18:21:33.692Z,100769.00
2023-02-08T18:24:04.788Z,100778.00
2023-02-08T18:26:36.088Z,100784.00
2023-02-08T18:29:07.473Z,100764.00
2023-02-08T18:31:40.686Z,100768.00
2023-02-08T18:34:10.719Z,100762.00
2023-02-08T18:36:40.658Z,100770.00
2023-02-08T18:39:10.644Z,100754.00
2023-02-08T18:41:40.579Z,100750.00
2023-02-08T18:44:10.955Z,100749.00
2023-02-08T18:46:43.618Z,100742.00
2023-02-08T18:49:16.220Z,100741.00
2023-02-08T18:51:47.360Z,100745.00
2023-02-08T18:54:18.927Z,100741.00
2023-02-08T18:56:48.975Z,100743.00
2023-02-08T18:59:18.915Z,100750.00
2023-02-08T19:01:51.481Z,100742.00
2023-02-08T19:04:21.490Z,100745.00
2023-02-08T19:06:51.402Z,100744.00
2023-02-08T19:09:21.337Z,100737.00
2023-02-08T19:11:51.432Z,100738.00
2023-02-08T19:14:21.619Z,100726.00
2023-02-08T19:16:54.387Z,100725.00
2023-02-08T19:19:24.338Z,100726.00
2023-02-08T19:21:54.416Z,100727.00
2023-02-08T19:24:24.610Z,100724.00
2023-02-08T19:26:54.607Z,100713.00
2023-02-08T19:29:25.026Z,100717.00
2023-02-08T19:31:58.470Z,100719.00
2023-02-08T19:34:28.750Z,100714.00
2023-02-08T19:36:58.706Z,100708.00
2023-02-08T19:39:30.155Z,100698.00
2023-02-08T19:42:00.808Z,100705.00
2023-02-08T19:44:31.021Z,100716.00
2023-02-08T19:47:03.582Z,100709.00
2023-02-08T19:49:33.496Z,100704.00
2023-02-08T19:52:03.539Z,100702.00
2023-02-08T19:54:33.651Z,100701.00
2023-02-08T19:57:03.705Z,100707.00
2023-02-08T19:59:35.414Z,100696.00
2023-02-08T20:02:08.063Z,100687.00
2023-02-08T20:04:38.035Z,100678.00
2023-02-08T20:07:08.890Z,100675.00
2023-02-08T20:09:39.094Z,100671.00
2023-02-08T20:12:09.990Z,100673.00
2023-02-08T20:14:40.106Z,100666.00
2023-02-08T20:17:12.870Z,100663.00
2023-02-08T20:19:42.766Z,100654.00
2023-02-08T20:22:12.903Z,100655.00
2023-02-08T20:24:42.867Z,100662.00
2023-02-08T20:27:12.789Z,100642.00
2023-02-08T20:29:42.694Z,100655.00
2023-02-08T20:32:15.239Z,100667.00
2023-02-08T20:34:58.374Z,100655.00
2023-02-08T20:37:28.837Z,100649.00
2023-02-08T20:39:58.951Z,100649.00
2023-02-08T20:42:29.248Z,100648.00
2023-02-08T20:44:59.203Z,100648.00
2023-02-08T20:47:33.835Z,100653.00
2023-02-08T20:50:17.792Z,100653.00
2023-02-08T20:52:49.410Z,100653.00
2023-02-08T20:55:19.699Z,100666.00
2023-02-08T20:57:49.681Z,100665.00
2023-02-08T21:00:20.266Z,100656.00
2023-02-08T21:02:52.807Z,100659.00
2023-02-08T21:05:22.755Z,100674.00
2023-02-08T21:07:52.682Z,100680.00
2023-02-08T21:10:22.608Z,100683.00
2023-02-08T21:12:52.567Z,100683.00
2023-02-08T21:15:22.511Z,100666.00
2023-02-08T21:17:55.135Z,100673.00
2023-02-08T21:20:25.146Z,100673.00
2023-02-08T21:22:55.125Z,100683.00
2023-02-08T21:25:25.102Z,100681.00
2023-02-08T21:27:55.377Z,100683.00
2023-02-08T21:30:25.502Z,100670.00
2023-02-08T21:32:58.052Z,100671.00
2023-02-08T21:35:27.991Z,100679.00
2023-02-08T21:37:58.002Z,100669.00
2023-02-08T21:40:27.952Z,100660.00
2023-02-08T21:42:57.907Z,100655.00
2023-02-08T21:45:27.844Z,100662.00
2023-02-08T21:48:00.371Z,100647.00
2023-02-08T21:50:43.583Z,100640.00
2023-02-08T21:53:27.448Z,100636.00
2023-02-08T21:55:57.437Z,100628.00
2023-02-08T21:58:27.488Z,100635.00
2023-02-08T22:00:57.669Z,100632.00
2023-02-08T22:03:31.396Z,100621.00
2023-02-08T22:06:13.667Z,100628.00
2023-02-08T22:08:43.593Z,100625.00
2023-02-08T22:11:13.584Z,100620.00
2023-02-08T22:13:45.729Z,100631.00
2023-02-08T22:16:17.895Z,100628.00
2023-02-08T22:18:50.789Z,100624.00
2023-02-08T22:21:20.763Z,100613.00
2023-02-08T22:23:50.731Z,100614.00
2023-02-08T22:26:20.734Z,100600.00
2023-02-08T22:28:50.705Z,100609.00
2023-02-08T22:31:20.892Z,100598.00
2023-02-08T22:33:55.001Z,100605.00
2023-02-08T22:36:24.967Z,100597.00
2023-02-08T22:38:54.964Z,100602.00
2023-02-08T22:41:25.405Z,100608.00
2023-02-08T22:43:55.843Z,100609.00
2023-02-08T22:46:25.965Z,100609.00
2023-02-08T22:48:58.576Z,100596.00
2023-02-08T22:51:28.555Z,100592.00
2023-02-08T22:53:58.608Z,100588.00
2023-02-08T22:56:28.617Z,100593.00
2023-02-08T22:58:58.573Z,100582.00
2023-02-08T23:01:28.567Z,100587.00
2023-02-08T23:04:02.362Z,100568.00
2023-02-08T23:06:32.325Z,100580.00
2023-02-08T23:09:02.281Z,100573.00
2023-02-08T23:11:32.459Z,100567.00
2023-02-08T23:14:02.856Z,100575.00
2023-02-08T23:16:32.945Z,100576.00
2023-02-08T23:19:05.579Z,100567.00
2023-02-08T23:21:36.009Z,100574.00
2023-02-08T23:24:06.140Z,100576.00
2023-02-08T23:26:36.333Z,100568.00
2023-02-08T23:29:06.592Z,100566.00
2023-02-08T23:31:36.648Z,100564.00
2023-02-08T23:34:11.462Z,100568.00
2023-02-08T23:36:42.356Z,100556.00
2023-02-08T23:39:12.389Z,100563.00
2023-02-08T23:41:42.363Z,100550.00
2023-02-08T23:44:12.377Z,100555.00
2023-02-08T23:46:42.422Z,100551.00
2023-02-08T23:49:15.001Z,100537.00
2023-02-08T23:51:44.949Z,100537.00
2023-02-08T23:54:14.909Z,100539.00
2023-02-08T23:56:44.851Z,100530.00
2023-02-08T23:59:14.824Z,100521.00
